createdAt,value
2018-12-21T00:00:05.241Z,2.33
2018-12-21T00:02:32.939Z,2.63
2018-12-21T00:05:00.590Z,2.80
2018-12-21T00:07:28.258Z,1.57
2018-12-21T00:09:55.909Z,2.33
2018-12-21T00:12:23.535Z,1.73
2018-12-21T00:14:51.065Z,1.90
2018-12-21T00:17:18.629Z,2.60
2018-12-21T00:19:46.166Z,2.43
2018-12-21T00:22:13.811Z,2.27
2018-12-21T00:24:41.332Z,2.53
2018-12-21T00:27:08.918Z,2.30
2018-12-21T00:29:36.425Z,2.17
2018-12-21T00:32:09.840Z,2.07
2018-12-21T00:34:43.083Z,2.00
2018-12-21T00:37:16.200Z,2.07
2018-12-21T00:39:49.293Z,2.40
2018-12-21T00:42:19.334Z,2.53
2018-12-21T00:44:47.106Z,2.40
2018-12-21T00:47:14.761Z,2.60
2018-12-21T00:49:42.579Z,2.00
2018-12-21T00:52:10.321Z,1.97
2018-12-21T00:54:37.870Z,2.30
2018-12-21T00:57:05.439Z,1.97
2018-12-21T00:59:33.003Z,1.70
2018-12-21T01:02:00.501Z,1.93
2018-12-21T01:04:28.155Z,1.87
2018-12-21T01:06:55.704Z,2.00
2018-12-21T01:09:23.377Z,1.93
2018-12-21T01:11:51.029Z,2.33
2018-12-21T01:14:18.914Z,1.97
2018-12-21T01:16:46.476Z,2.07
2018-12-21T01:19:14.297Z,2.13
2018-12-21T01:21:41.962Z,1.80
2018-12-21T01:24:09.571Z,1.43
2018-12-21T01:26:37.123Z,1.87
2018-12-21T01:29:04.655Z,1.83
2018-12-21T01:31:32.174Z,3.63
2018-12-21T01:33:59.733Z,1.80
2018-12-21T01:36:27.270Z,2.23
2018-12-21T01:38:54.841Z,1.70
2018-12-21T01:41:22.421Z,1.63
2018-12-21T01:43:50.202Z,1.23
2018-12-21T01:46:17.742Z,2.00
2018-12-21T01:48:45.355Z,1.30
2018-12-21T01:51:12.918Z,1.50
2018-12-21T01:53:40.556Z,1.63
2018-12-21T01:56:08.159Z,1.47
2018-12-21T01:58:35.713Z,1.63
2018-12-21T02:01:03.258Z,1.67
2018-12-21T02:03:30.814Z,1.60
2018-12-21T02:05:58.386Z,1.50
2018-12-21T02:08:26.080Z,1.30
2018-12-21T02:10:53.608Z,2.23
2018-12-21T02:13:21.147Z,1.70
2018-12-21T02:15:48.766Z,1.33
2018-12-21T02:18:16.318Z,1.80
2018-12-21T02:20:44.064Z,1.40
2018-12-21T02:23:11.595Z,1.43
2018-12-21T02:25:39.195Z,1.80
2018-12-21T02:28:06.705Z,1.10
2018-12-21T02:30:34.358Z,1.10
2018-12-21T02:33:01.906Z,1.10
2018-12-21T02:35:29.463Z,1.70
2018-12-21T02:37:57.010Z,1.93
2018-12-21T02:40:24.586Z,1.20
2018-12-21T02:42:52.251Z,1.70
2018-12-21T02:45:19.889Z,1.60
2018-12-21T02:47:47.437Z,1.40
2018-12-21T02:50:15.150Z,1.23
2018-12-21T02:52:42.841Z,1.50
2018-12-21T02:55:10.376Z,1.40
2018-12-21T02:57:37.968Z,1.53
2018-12-21T03:00:07.346Z,1.30
2018-12-21T03:02:34.894Z,1.10
2018-12-21T03:05:02.462Z,1.40
2018-12-21T03:07:30.148Z,1.30
2018-12-21T03:09:57.709Z,1.03
2018-12-21T03:12:25.349Z,1.10
2018-12-21T03:14:52.916Z,1.40
2018-12-21T03:17:20.478Z,1.43
2018-12-21T03:19:48.173Z,1.03
2018-12-21T03:22:15.881Z,1.27
2018-12-21T03:24:43.452Z,1.50
2018-12-21T03:27:10.998Z,1.37
2018-12-21T03:29:38.558Z,1.30
2018-12-21T03:32:06.304Z,1.10
2018-12-21T03:34:33.820Z,1.40
2018-12-21T03:37:01.367Z,1.10
2018-12-21T03:39:28.921Z,1.67
2018-12-21T03:41:56.460Z,0.90
2018-12-21T03:44:24.045Z,1.20
2018-12-21T03:46:51.581Z,1.53
2018-12-21T03:49:19.125Z,0.80
2018-12-21T03:51:46.768Z,1.63
2018-12-21T03:54:14.588Z,1.40
2018-12-21T03:56:42.152Z,1.80
2018-12-21T03:59:09.693Z,1.50
2018-12-21T04:01:37.226Z,1.30
2018-12-21T04:04:04.865Z,1.00
2018-12-21T04:06:32.413Z,1.47
2018-12-21T04:08:59.954Z,1.07
2018-12-21T04:11:27.544Z,1.37
2018-12-21T04:13:55.110Z,1.57
2018-12-21T04:16:22.673Z,2.03
2018-12-21T04:18:50.239Z,1.53
2018-12-21T04:21:17.794Z,1.50
2018-12-21T04:23:45.398Z,1.40
2018-12-21T04:26:12.955Z,0.90
2018-12-21T04:28:40.462Z,1.80
2018-12-21T04:31:07.985Z,1.10
2018-12-21T04:33:35.512Z,0.80
2018-12-21T04:36:03.157Z,1.10
2018-12-21T04:38:30.911Z,1.23
2018-12-21T04:40:58.439Z,1.40
2018-12-21T04:43:25.985Z,1.37
2018-12-21T04:45:53.823Z,0.97
2018-12-21T04:48:21.373Z,1.00
2018-12-21T04:50:48.900Z,1.40
2018-12-21T04:53:16.562Z,1.07
2018-12-21T04:55:45.061Z,1.00
2018-12-21T04:58:12.594Z,1.60
2018-12-21T05:00:40.365Z,2.33
2018-12-21T05:03:07.879Z,1.00
2018-12-21T05:05:35.413Z,1.20
2018-12-21T05:08:02.962Z,1.30
2018-12-21T05:10:30.529Z,1.30
2018-12-21T05:12:58.157Z,1.37
2018-12-21T05:15:25.751Z,1.37
2018-12-21T05:17:53.346Z,1.13
2018-12-21T05:20:20.872Z,1.63
2018-12-21T05:22:52.397Z,3.17
2018-12-21T05:25:18.152Z,1.13
2018-12-21T05:27:45.730Z,1.60
2018-12-21T05:30:13.402Z,1.43
2018-12-21T05:32:40.943Z,2.40
2018-12-21T05:35:08.463Z,1.70
2018-12-21T05:37:35.985Z,1.17
2018-12-21T05:40:04.391Z,1.63
2018-12-21T05:42:31.985Z,1.30
2018-12-21T05:44:59.596Z,1.40
2018-12-21T05:47:27.316Z,1.47
2018-12-21T05:49:54.903Z,1.47
2018-12-21T05:52:22.646Z,1.33
2018-12-21T05:54:50.212Z,0.90
2018-12-21T05:57:17.889Z,1.60
2018-12-21T05:59:45.402Z,0.90
2018-12-21T06:02:12.970Z,1.00
2018-12-21T06:04:40.570Z,0.83
2018-12-21T06:07:08.140Z,1.20
2018-12-21T06:09:35.692Z,0.60
2018-12-21T06:12:03.233Z,0.80
2018-12-21T06:14:30.758Z,0.77
2018-12-21T06:16:58.381Z,0.50
2018-12-21T06:19:26.015Z,0.57
2018-12-21T06:21:53.710Z,0.67
2018-12-21T06:24:21.425Z,0.67
2018-12-21T06:26:48.976Z,0.70
2018-12-21T06:29:16.534Z,0.87
2018-12-21T06:31:44.063Z,1.87
2018-12-21T06:34:11.572Z,0.40
2018-12-21T06:36:39.358Z,0.60
2018-12-21T06:39:06.934Z,0.50
2018-12-21T06:41:34.559Z,0.70
2018-12-21T06:44:02.270Z,0.50
2018-12-21T06:46:29.862Z,0.30
2018-12-21T06:48:57.404Z,0.33
2018-12-21T06:51:25.880Z,0.63
2018-12-21T06:53:53.458Z,0.50
2018-12-21T06:56:21.018Z,0.40
2018-12-21T06:58:48.661Z,0.27
2018-12-21T07:01:16.192Z,0.53
2018-12-21T07:03:43.750Z,0.30
2018-12-21T07:06:11.614Z,0.60
2018-12-21T07:08:39.242Z,0.40
2018-12-21T07:11:06.878Z,0.47
2018-12-21T07:13:34.415Z,0.30
2018-12-21T07:16:02.186Z,0.30
2018-12-21T07:18:29.763Z,0.40
2018-12-21T07:20:57.431Z,0.30
2018-12-21T07:23:27.264Z,0.50
2018-12-21T07:25:54.649Z,0.50
2018-12-21T07:28:22.288Z,0.50
2018-12-21T07:30:49.950Z,0.40
2018-12-21T07:33:17.554Z,0.43
2018-12-21T07:35:45.119Z,0.63
2018-12-21T07:38:12.982Z,0.40
2018-12-21T07:40:40.531Z,0.40
2018-12-21T07:43:08.046Z,0.30
2018-12-21T07:45:35.618Z,0.60
2018-12-21T07:48:03.268Z,0.70
2018-12-21T07:50:30.819Z,0.53
2018-12-21T07:52:58.491Z,0.87
2018-12-21T07:55:26.144Z,0.30
2018-12-21T07:57:53.711Z,0.60
2018-12-21T08:00:21.311Z,0.63
2018-12-21T08:02:48.938Z,0.30
2018-12-21T08:05:16.473Z,0.40
2018-12-21T08:07:44.074Z,0.40
2018-12-21T08:10:13.105Z,0.60
2018-12-21T08:12:40.650Z,0.53
2018-12-21T08:15:08.297Z,0.33
2018-12-21T08:17:35.874Z,0.47
2018-12-21T08:20:04.038Z,0.40
2018-12-21T08:22:31.703Z,0.50
2018-12-21T08:24:59.249Z,0.30
2018-12-21T08:27:26.858Z,0.40
2018-12-21T08:29:54.396Z,0.40
2018-12-21T08:32:21.965Z,0.30
2018-12-21T08:34:49.627Z,0.40
2018-12-21T08:37:17.178Z,0.30
2018-12-21T08:39:44.755Z,0.40
2018-12-21T08:42:12.318Z,0.40
2018-12-21T08:44:39.868Z,0.30
2018-12-21T08:47:07.487Z,0.30
2018-12-21T08:49:35.123Z,0.27
2018-12-21T08:52:02.705Z,0.60
2018-12-21T08:54:30.350Z,0.30
2018-12-21T08:56:57.890Z,0.30
2018-12-21T08:59:25.452Z,0.50
2018-12-21T09:01:53.046Z,1.80
2018-12-21T09:04:20.689Z,0.40
2018-12-21T09:06:48.410Z,0.40
2018-12-21T09:09:16.052Z,0.50
2018-12-21T09:11:43.618Z,0.50
2018-12-21T09:14:11.193Z,0.60
2018-12-21T09:16:38.732Z,0.30
2018-12-21T09:19:06.279Z,0.30
2018-12-21T09:21:33.885Z,0.23
2018-12-21T09:24:01.520Z,0.70
2018-12-21T09:26:29.073Z,0.50
2018-12-21T09:28:56.807Z,0.50
2018-12-21T09:31:24.427Z,0.90
2018-12-21T09:33:51.992Z,0.40
2018-12-21T09:36:19.553Z,0.20
2018-12-21T09:38:47.199Z,0.30
2018-12-21T09:41:14.763Z,0.27
2018-12-21T09:43:42.305Z,0.70
2018-12-21T09:46:09.919Z,0.30
2018-12-21T09:48:37.459Z,0.40
2018-12-21T09:51:05.045Z,0.40
2018-12-21T09:53:32.641Z,0.30
2018-12-21T09:56:00.226Z,0.20
2018-12-21T09:58:27.765Z,0.23
2018-12-21T10:00:55.320Z,0.30
2018-12-21T10:03:22.867Z,0.50
2018-12-21T10:05:50.542Z,0.40
2018-12-21T10:08:18.110Z,0.47
2018-12-21T10:10:45.652Z,0.50
2018-12-21T10:13:13.227Z,0.40
2018-12-21T10:15:40.790Z,0.50
2018-12-21T10:18:08.524Z,0.50
2018-12-21T10:20:36.066Z,1.20
2018-12-21T10:23:03.657Z,0.40
2018-12-21T10:25:31.386Z,0.50
2018-12-21T10:27:58.938Z,0.30
2018-12-21T10:30:26.591Z,0.27
2018-12-21T10:32:54.221Z,0.87
2018-12-21T10:35:22.751Z,0.20
2018-12-21T10:37:50.241Z,0.37
2018-12-21T10:40:17.821Z,0.40
2018-12-21T10:42:45.361Z,0.40
2018-12-21T10:45:13.015Z,0.23
2018-12-21T10:47:40.546Z,0.53
2018-12-21T10:50:09.504Z,0.40
2018-12-21T10:52:38.962Z,0.43
2018-12-21T10:55:06.792Z,0.27
2018-12-21T10:57:34.361Z,0.40
2018-12-21T11:00:01.967Z,0.60
2018-12-21T11:02:29.533Z,0.73
2018-12-21T11:04:57.174Z,0.50
2018-12-21T11:07:24.764Z,0.30
2018-12-21T11:09:52.318Z,0.50
2018-12-21T11:12:20.845Z,0.27
2018-12-21T11:14:48.381Z,0.33
2018-12-21T11:17:16.043Z,0.30
2018-12-21T11:19:44.633Z,0.30
2018-12-21T11:22:12.157Z,0.50
2018-12-21T11:24:39.706Z,0.53
2018-12-21T11:27:07.241Z,0.67
2018-12-21T11:29:34.815Z,0.80
2018-12-21T11:32:02.453Z,0.93
2018-12-21T11:34:30.017Z,0.83
2018-12-21T11:36:57.583Z,0.60
2018-12-21T11:39:25.194Z,0.80
2018-12-21T11:41:52.794Z,0.67
2018-12-21T11:44:20.325Z,1.30
2018-12-21T11:46:47.851Z,1.10
2018-12-21T11:49:15.475Z,1.07
2018-12-21T11:51:43.014Z,0.97
2018-12-21T11:54:11.574Z,1.10
2018-12-21T11:56:39.161Z,1.33
2018-12-21T11:59:06.793Z,0.90
2018-12-21T12:01:34.313Z,0.93
2018-12-21T12:04:01.920Z,0.80
2018-12-21T12:06:29.496Z,1.10
2018-12-21T12:09:05.926Z,1.30
2018-12-21T12:11:26.720Z,1.90
2018-12-21T12:13:54.334Z,0.87
2018-12-21T12:16:21.875Z,0.80
2018-12-21T12:18:49.422Z,3.00
2018-12-21T12:21:17.018Z,1.13
2018-12-21T12:23:44.518Z,1.00
2018-12-21T12:26:12.148Z,1.00
2018-12-21T12:28:39.682Z,0.40
2018-12-21T12:31:07.222Z,0.47
2018-12-21T12:33:35.250Z,0.50
2018-12-21T12:36:02.863Z,0.40
2018-12-21T12:38:30.485Z,0.50
2018-12-21T12:41:06.385Z,0.30
2018-12-21T12:43:27.596Z,0.33
2018-12-21T12:45:55.173Z,0.60
2018-12-21T12:48:22.717Z,0.53
2018-12-21T12:50:50.254Z,0.40
2018-12-21T12:53:17.808Z,0.87
2018-12-21T12:55:45.354Z,0.50
2018-12-21T12:58:12.963Z,0.40
2018-12-21T13:00:40.509Z,0.53
2018-12-21T13:03:09.095Z,0.30
2018-12-21T13:05:36.684Z,0.47
2018-12-21T13:08:04.286Z,0.40
2018-12-21T13:10:31.871Z,0.30
2018-12-21T13:12:59.405Z,0.40
2018-12-21T13:15:27.040Z,0.50
2018-12-21T13:17:54.688Z,0.50
2018-12-21T13:20:22.215Z,0.30
2018-12-21T13:22:49.883Z,0.30
2018-12-21T13:25:17.622Z,0.37
2018-12-21T13:27:45.262Z,0.40
2018-12-21T13:30:12.774Z,0.40
2018-12-21T13:32:40.306Z,0.33
2018-12-21T13:35:07.991Z,0.40
2018-12-21T13:37:35.612Z,0.60
2018-12-21T13:40:04.342Z,0.30
2018-12-21T13:42:31.876Z,0.33
2018-12-21T13:44:59.442Z,0.30
2018-12-21T13:47:27.108Z,0.43
2018-12-21T13:49:54.749Z,0.50
2018-12-21T13:52:22.274Z,0.30
2018-12-21T13:54:49.830Z,0.50
2018-12-21T13:57:17.372Z,0.90
2018-12-21T13:59:44.907Z,0.70
2018-12-21T14:02:12.529Z,0.50
2018-12-21T14:04:40.301Z,0.70
2018-12-21T14:07:07.864Z,0.50
2018-12-21T14:09:35.486Z,0.90
2018-12-21T14:12:03.071Z,0.53
2018-12-21T14:14:30.651Z,0.70
2018-12-21T14:16:58.218Z,0.93
2018-12-21T14:19:25.780Z,0.70
2018-12-21T14:21:53.519Z,0.87
2018-12-21T14:24:21.284Z,1.20
2018-12-21T14:26:48.870Z,0.60
2018-12-21T14:29:16.434Z,0.70
2018-12-21T14:31:44.261Z,1.20
2018-12-21T14:34:11.846Z,0.73
2018-12-21T14:36:39.415Z,0.93
2018-12-21T14:39:07.059Z,0.87
2018-12-21T14:41:34.674Z,1.80
2018-12-21T14:44:02.503Z,1.30
2018-12-21T14:46:30.244Z,1.57
2018-12-21T14:48:57.817Z,1.33
2018-12-21T14:51:25.362Z,2.00
2018-12-21T14:53:52.937Z,1.70
2018-12-21T14:56:20.514Z,1.57
2018-12-21T14:58:48.031Z,1.73
2018-12-21T15:01:15.671Z,2.63
2018-12-21T15:03:44.136Z,1.77
2018-12-21T15:06:11.902Z,2.37
2018-12-21T15:08:39.546Z,1.33
2018-12-21T15:11:07.155Z,2.17
2018-12-21T15:13:34.668Z,5.23
2018-12-21T15:16:02.219Z,2.00
2018-12-21T15:18:29.787Z,1.67
2018-12-21T15:20:57.350Z,1.47
2018-12-21T15:23:24.873Z,2.30
2018-12-21T15:25:52.480Z,2.13
2018-12-21T15:28:20.121Z,2.70
2018-12-21T15:30:47.679Z,1.97
2018-12-21T15:33:15.247Z,2.67
2018-12-21T15:35:42.791Z,2.07
2018-12-21T15:38:10.537Z,3.03
2018-12-21T15:40:38.146Z,2.20
2018-12-21T15:43:05.712Z,3.17
2018-12-21T15:45:33.469Z,3.30
2018-12-21T15:48:01.034Z,2.70
2018-12-21T15:50:28.535Z,3.07
2018-12-21T15:52:56.124Z,3.13
2018-12-21T15:55:23.756Z,3.90
2018-12-21T15:57:51.428Z,3.27
2018-12-21T16:00:18.974Z,2.53
2018-12-21T16:02:46.883Z,3.70
2018-12-21T16:05:14.600Z,4.20
2018-12-21T16:07:43.218Z,3.67
2018-12-21T16:10:10.956Z,4.17
2018-12-21T16:12:38.559Z,3.90
2018-12-21T16:15:06.334Z,4.53
2018-12-21T16:17:33.892Z,3.60
2018-12-21T16:20:01.525Z,3.90
2018-12-21T16:22:29.062Z,3.40
2018-12-21T16:24:56.617Z,3.30
2018-12-21T16:27:24.726Z,2.80
2018-12-21T16:29:52.496Z,3.90
2018-12-21T16:32:20.063Z,3.83
2018-12-21T16:34:47.748Z,3.67
2018-12-21T16:37:15.302Z,3.23
2018-12-21T16:39:42.902Z,3.67
2018-12-21T16:42:10.475Z,4.03
2018-12-21T16:44:38.007Z,3.03
2018-12-21T16:47:05.661Z,3.40
2018-12-21T16:49:33.526Z,3.80
2018-12-21T16:52:01.191Z,3.53
2018-12-21T16:54:28.740Z,4.93
2018-12-21T16:56:56.289Z,4.53
2018-12-21T16:59:23.851Z,5.10
2018-12-21T17:01:53.643Z,4.60
2018-12-21T17:04:21.214Z,4.40
2018-12-21T17:06:48.770Z,5.57
2018-12-21T17:09:16.398Z,5.60
2018-12-21T17:11:44.068Z,4.47
2018-12-21T17:14:11.730Z,5.60
2018-12-21T17:16:39.397Z,5.63
2018-12-21T17:19:07.695Z,4.30
2018-12-21T17:21:35.443Z,5.20
2018-12-21T17:24:03.034Z,5.30
2018-12-21T17:26:30.634Z,5.57
2018-12-21T17:28:58.171Z,4.77
2018-12-21T17:31:25.805Z,5.10
2018-12-21T17:33:53.391Z,4.80
2018-12-21T17:36:20.989Z,5.40
2018-12-21T17:38:48.521Z,5.70
2018-12-21T17:41:16.445Z,6.07
2018-12-21T17:43:44.011Z,5.87
2018-12-21T17:46:11.555Z,4.90
2018-12-21T17:48:39.138Z,4.90
2018-12-21T17:51:06.673Z,4.90
2018-12-21T17:53:34.219Z,6.57
2018-12-21T17:56:01.782Z,6.70
2018-12-21T17:58:29.326Z,4.87
2018-12-21T18:00:56.870Z,5.30
2018-12-21T18:03:24.953Z,4.97
2018-12-21T18:05:52.482Z,5.43
2018-12-21T18:08:20.035Z,5.00
2018-12-21T18:10:47.614Z,5.73
2018-12-21T18:13:15.134Z,5.70
2018-12-21T18:15:42.781Z,5.57
2018-12-21T18:18:10.338Z,5.70
2018-12-21T18:20:37.914Z,4.57
2018-12-21T18:23:08.081Z,6.97
2018-12-21T18:25:35.647Z,4.87
2018-12-21T18:28:10.778Z,5.93
2018-12-21T18:30:34.219Z,4.97
2018-12-21T18:33:10.220Z,6.20
2018-12-21T18:35:31.904Z,5.40
2018-12-21T18:37:59.468Z,5.03
2018-12-21T18:40:27.139Z,3.97
2018-12-21T18:42:54.897Z,6.03
2018-12-21T18:45:22.621Z,5.23
2018-12-21T18:47:50.335Z,6.20
2018-12-21T18:50:17.898Z,6.60
2018-12-21T18:52:45.461Z,5.43
2018-12-21T18:55:14.215Z,5.03
2018-12-21T18:57:41.818Z,4.60
2018-12-21T19:00:13.204Z,4.37
2018-12-21T19:02:40.820Z,4.80
2018-12-21T19:05:08.462Z,4.13
2018-12-21T19:07:35.996Z,5.57
2018-12-21T19:10:04.279Z,3.73
2018-12-21T19:12:31.815Z,4.43
2018-12-21T19:14:59.477Z,4.67
2018-12-21T19:17:27.035Z,3.80
2018-12-21T19:19:54.615Z,4.10
2018-12-21T19:22:22.158Z,4.40
2018-12-21T19:24:49.744Z,3.40
2018-12-21T19:27:17.307Z,4.67
2018-12-21T19:29:44.968Z,3.47
2018-12-21T19:32:13.510Z,3.13
2018-12-21T19:34:41.232Z,4.97
2018-12-21T19:37:08.799Z,3.47
2018-12-21T19:39:36.400Z,4.40
2018-12-21T19:42:03.947Z,4.10
2018-12-21T19:44:31.502Z,3.27
2018-12-21T19:46:59.108Z,4.90
2018-12-21T19:49:26.759Z,4.57
2018-12-21T19:51:54.314Z,4.00
2018-12-21T19:54:21.940Z,5.60
2018-12-21T19:56:50.883Z,4.30
2018-12-21T19:59:18.430Z,5.40
2018-12-21T20:01:46.078Z,4.10
2018-12-21T20:04:13.619Z,5.07
2018-12-21T20:06:41.191Z,4.40
2018-12-21T20:09:08.750Z,3.93
2018-12-21T20:11:36.459Z,6.00
2018-12-21T20:14:04.206Z,6.03
2018-12-21T20:16:31.806Z,3.87
2018-12-21T20:18:59.425Z,7.60
2018-12-21T20:21:26.963Z,5.63
2018-12-21T20:23:54.636Z,4.57
2018-12-21T20:26:22.181Z,5.07
2018-12-21T20:28:49.747Z,5.60
2018-12-21T20:31:17.414Z,3.60
2018-12-21T20:33:44.975Z,4.10
2018-12-21T20:36:12.787Z,6.43
2018-12-21T20:38:40.301Z,4.07
2018-12-21T20:41:09.043Z,5.53
2018-12-21T20:43:36.639Z,6.20
2018-12-21T20:46:04.186Z,4.77
2018-12-21T20:48:31.848Z,4.50
2018-12-21T20:50:59.380Z,6.17
2018-12-21T20:53:26.922Z,4.73
2018-12-21T20:55:55.651Z,5.20
2018-12-21T20:58:25.861Z,6.00
2018-12-21T21:00:53.391Z,4.97
2018-12-21T21:03:20.947Z,4.80
2018-12-21T21:05:48.746Z,5.10
2018-12-21T21:08:16.311Z,4.50
2018-12-21T21:10:44.076Z,4.63
2018-12-21T21:13:19.031Z,3.97
2018-12-21T21:15:41.224Z,4.43
2018-12-21T21:18:08.830Z,5.23
2018-12-21T21:20:36.360Z,4.67
2018-12-21T21:23:03.923Z,4.57
2018-12-21T21:25:31.469Z,4.27
2018-12-21T21:27:59.033Z,6.00
2018-12-21T21:30:26.781Z,6.83
2018-12-21T21:32:54.331Z,4.10
2018-12-21T21:35:21.920Z,4.83
2018-12-21T21:37:50.093Z,4.30
2018-12-21T21:40:18.045Z,5.90
2018-12-21T21:42:46.655Z,6.37
2018-12-21T21:45:14.230Z,5.43
2018-12-21T21:47:41.817Z,5.97
2018-12-21T21:50:09.903Z,6.10
2018-12-21T21:52:37.572Z,5.47
2018-12-21T21:55:05.507Z,5.27
2018-12-21T21:57:39.238Z,5.73
2018-12-21T22:00:02.819Z,6.33
2018-12-21T22:02:30.380Z,6.07
2018-12-21T22:04:59.994Z,7.80
2018-12-21T22:07:27.636Z,5.83
2018-12-21T22:09:55.325Z,5.20
2018-12-21T22:12:22.858Z,6.90
2018-12-21T22:14:50.479Z,5.97
2018-12-21T22:17:18.013Z,5.53
2018-12-21T22:19:45.587Z,5.60
2018-12-21T22:22:13.182Z,7.07
2018-12-21T22:24:40.743Z,5.60
2018-12-21T22:27:08.385Z,6.37
2018-12-21T22:29:35.975Z,4.70
2018-12-21T22:32:03.645Z,5.57
2018-12-21T22:34:31.845Z,5.57
2018-12-21T22:36:59.408Z,6.03
2018-12-21T22:39:26.988Z,6.73
2018-12-21T22:41:54.532Z,6.50
2018-12-21T22:44:22.417Z,5.90
2018-12-21T22:46:49.958Z,9.30
2018-12-21T22:49:17.641Z,6.90
2018-12-21T22:51:46.569Z,6.70
2018-12-21T22:54:14.292Z,6.80
2018-12-21T22:56:41.929Z,5.83
2018-12-21T22:59:09.490Z,5.30
2018-12-21T23:01:37.014Z,5.70
2018-12-21T23:04:04.734Z,5.57
2018-12-21T23:06:32.330Z,6.90
2018-12-21T23:08:59.919Z,5.47
2018-12-21T23:11:27.477Z,5.80
2018-12-21T23:13:55.228Z,8.20
2018-12-21T23:16:22.794Z,7.03
2018-12-21T23:18:50.360Z,5.77
2018-12-21T23:21:18.132Z,5.23
2018-12-21T23:23:45.769Z,5.40
2018-12-21T23:26:13.482Z,7.00
2018-12-21T23:28:41.055Z,6.20
2018-12-21T23:31:08.625Z,7.10
2018-12-21T23:33:36.208Z,5.60
2018-12-21T23:36:03.834Z,6.03
2018-12-21T23:38:31.433Z,7.53
2018-12-21T23:40:58.995Z,7.03
2018-12-21T23:43:26.648Z,8.03
2018-12-21T23:45:54.225Z,7.90
2018-12-21T23:48:21.807Z,6.70
2018-12-21T23:50:49.382Z,7.43
2018-12-21T23:53:16.963Z,6.33
2018-12-21T23:55:44.519Z,7.00
2018-12-21T23:58:13.773Z,7.73
